Time;durP1;ratioP1;P1;durP2;ratioP2;P2;SDS_P1;SDS_P2;PMS_P1;PMS_P2;Temp;Humidity;BMP_temperature;BMP_pressure;BME280_temperature;BME280_humidity;BME280_pressure;Samples;Min_cycle;Max_cycle;Signal;HPM_P1;HPM_P2
2024/04/02 00:01:06;;;;;;;18.50;4.30;;;;;;;13.45;100.00;100355.73;106435;1253;63890;-76
2024/04/02 00:03:33;;;;;;;18.40;5.20;;;;;;;13.42;100.00;100357.92;106040;1257;71348;-74
2024/04/02 00:06:00;;;;;;;13.70;4.40;;;;;;;13.38;100.00;100357.17;105940;1253;62233;-76
2024/04/02 00:08:28;;;;;;;19.50;4.10;;;;;;;13.33;100.00;100355.08;105839;1253;62901;-75
2024/04/02 00:11:05;;;;;;;23.60;5.80;;;;;;;13.29;100.00;100352.60;105792;1257;74655;-78
2024/04/02 00:13:32;;;;;;;17.70;4.40;;;;;;;13.25;100.00;100348.81;105850;1253;63975;-74
2024/04/02 00:15:59;;;;;;;15.40;5.60;;;;;;;13.22;100.00;100343.27;105914;1253;72322;-73
2024/04/02 00:18:26;;;;;;;16.00;4.90;;;;;;;13.19;100.00;100343.33;105782;1257;61996;-73
2024/04/02 00:20:53;;;;;;;12.50;4.00;;;;;;;13.16;100.00;100341.09;105886;1253;61270;-75
2024/04/02 00:23:20;;;;;;;21.50;4.50;;;;;;;13.13;100.00;100340.42;105620;1257;74683;-75
2024/04/02 00:25:47;;;;;;;11.60;3.90;;;;;;;13.10;100.00;100344.15;105705;1254;62447;-76
2024/04/02 00:28:14;;;;;;;25.50;5.80;;;;;;;13.08;100.00;100346.10;105795;1254;71671;-77
2024/04/02 00:30:40;;;;;;;16.70;5.30;;;;;;;13.05;100.00;100348.90;105755;1257;61375;-77
2024/04/02 00:33:07;;;;;;;14.10;4.00;;;;;;;13.03;100.00;100349.58;105792;1253;61350;-76
2024/04/02 00:35:34;;;;;;;14.80;4.00;;;;;;;13.01;100.00;100346.58;105767;1257;61244;-76
2024/04/02 00:38:01;;;;;;;15.20;4.00;;;;;;;12.99;100.00;100346.72;105818;1257;63615;-75
2024/04/02 00:40:29;;;;;;;12.40;4.10;;;;;;;12.97;100.00;100342.52;105940;1253;72166;-78
2024/04/02 00:43:04;;;;;;;20.10;4.90;;;;;;;12.94;100.00;100343.96;105882;1253;61273;-77
2024/04/02 00:45:31;;;;;;;17.80;5.00;;;;;;;12.91;100.00;100337.31;105806;1252;61137;-76
2024/04/02 00:47:58;;;;;;;17.70;5.60;;;;;;;12.88;100.00;100332.46;105885;1257;73913;-75
2024/04/02 00:50:25;;;;;;;14.30;5.80;;;;;;;12.86;100.00;100331.77;105828;1256;63995;-76
2024/04/02 00:52:53;;;;;;;18.60;5.80;;;;;;;12.83;100.00;100327.02;105896;1253;72533;-76
2024/04/02 00:55:19;;;;;;;16.90;5.50;;;;;;;12.82;100.00;100325.89;105756;1257;61882;-75
2024/04/02 00:57:46;;;;;;;18.00;4.20;;;;;;;12.79;100.00;100327.88;105846;1253;61242;-77
2024/04/02 01:00:14;;;;;;;11.50;4.40;;;;;;;12.77;100.00;100327.88;105821;1253;74540;-77
2024/04/02 01:02:40;;;;;;;16.50;4.60;;;;;;;12.74;100.00;100322.96;105747;1257;63835;-73
2024/04/02 01:05:07;;;;;;;16.10;4.60;;;;;;;12.72;100.00;100322.95;105811;1253;72541;-75
2024/04/02 01:07:35;;;;;;;20.30;5.10;;;;;;;12.70;100.00;100319.38;105855;1256;61250;-76
2024/04/02 01:10:02;;;;;;;18.20;4.60;;;;;;;12.69;100.00;100314.39;105826;1253;61270;-75
2024/04/02 01:12:29;;;;;;;15.00;4.30;;;;;;;12.68;100.00;100312.36;105660;1257;74484;-73
2024/04/02 01:14:56;;;;;;;14.90;4.90;;;;;;;12.66;100.00;100314.42;105657;1257;63683;-74
2024/04/02 01:17:23;;;;;;;25.20;4.40;;;;;;;12.65;100.00;100315.59;105819;1253;72703;-75
2024/04/02 01:19:50;;;;;;;13.40;5.00;;;;;;;12.62;100.00;100317.66;105746;1257;62016;-74
2024/04/02 01:22:17;;;;;;;19.10;5.00;;;;;;;12.61;100.00;100319.38;105803;1253;61224;-76
2024/04/02 01:24:46;;;;;;;20.40;5.60;;;;;;;12.58;100.00;100318.21;105749;1253;61325;-75
2024/04/02 01:27:13;;;;;;;17.30;4.70;;;;;;;12.53;100.00;100317.86;105826;1257;62590;-76
2024/04/02 01:29:40;;;;;;;26.00;6.50;;;;;;;12.49;100.00;100321.48;105790;1252;71272;-76
2024/04/02 01:32:06;;;;;;;24.50;5.60;;;;;;;12.44;100.00;100317.26;105802;1253;61331;-75
2024/04/02 01:34:33;;;;;;;27.10;7.00;;;;;;;12.41;100.00;100318.56;105806;1252;61289;-76
2024/04/02 01:36:59;;;;;;;19.50;4.80;;;;;;;12.38;100.00;100323.70;105780;1257;74666;-77
2024/04/02 01:39:26;;;;;;;21.70;5.00;;;;;;;12.35;100.00;100322.66;105849;1256;61280;-75
2024/04/02 01:41:53;;;;;;;17.00;5.70;;;;;;;12.32;100.00;100321.13;105873;1256;72751;-75
2024/04/02 01:44:20;;;;;;;26.60;5.60;;;;;;;12.29;100.00;100321.37;105820;1257;61919;-74
2024/04/02 01:46:47;;;;;;;13.60;5.50;;;;;;;12.26;100.00;100321.21;105765;1253;61275;-77
2024/04/02 01:49:14;;;;;;;16.50;5.00;;;;;;;12.24;100.00;100319.56;105773;1254;74879;-74
2024/04/02 01:51:42;;;;;;;20.10;6.80;;;;;;;12.22;100.00;100321.09;105700;1252;63262;-74
2024/04/02 01:54:08;;;;;;;20.80;7.10;;;;;;;12.21;100.00;100314.89;105802;1252;72708;-76
2024/04/02 01:56:35;;;;;;;24.00;5.60;;;;;;;12.21;100.00;100315.77;105965;1257;61803;-73
2024/04/02 01:59:02;;;;;;;16.80;4.90;;;;;;;12.20;100.00;100314.09;106256;1253;61449;-76
2024/04/02 02:01:29;;;;;;;14.80;5.60;;;;;;;12.19;100.00;100306.80;106288;1256;74922;-76
2024/04/02 02:03:56;;;;;;;16.20;5.60;;;;;;;12.18;100.00;100302.67;106097;1252;63962;-73
2024/04/02 02:06:23;;;;;;;20.20;5.40;;;;;;;12.17;100.00;100306.06;105860;1254;72641;-75
2024/04/02 02:08:50;;;;;;;22.20;6.70;;;;;;;12.16;100.00;100303.89;105848;1256;61933;-74
2024/04/02 02:11:16;;;;;;;20.50;6.80;;;;;;;12.14;100.00;100308.02;105917;1255;61148;-73
2024/04/02 02:13:43;;;;;;;18.00;6.50;;;;;;;12.13;100.00;100306.23;105871;1252;74689;-74
2024/04/02 02:16:09;;;;;;;17.40;6.30;;;;;;;12.11;100.00;100306.15;105764;1253;63837;-74
2024/04/02 02:18:36;;;;;;;24.60;6.60;;;;;;;12.10;100.00;100306.77;105788;1254;72524;-76
2024/04/02 02:21:03;;;;;;;22.10;5.80;;;;;;;12.09;100.00;100303.34;105780;1257;61231;-75
2024/04/02 02:23:29;;;;;;;17.60;5.70;;;;;;;12.08;100.00;100301.83;105812;1257;61197;-74
2024/04/02 02:25:57;;;;;;;12.90;5.40;;;;;;;12.08;100.00;100306.42;105999;1254;74752;-75
2024/04/02 02:28:24;;;;;;;19.10;6.20;;;;;;;12.06;100.00;100309.33;105934;1257;63980;-74
2024/04/02 02:30:51;;;;;;;20.60;7.30;;;;;;;12.04;100.00;100311.55;105791;1256;72503;-74
2024/04/02 02:33:17;;;;;;;28.10;6.60;;;;;;;12.02;100.00;100309.58;105795;1254;61151;-73
2024/04/02 02:35:52;;;;;;;13.50;5.70;;;;;;;12.00;100.00;100313.02;105783;1253;61260;-74
2024/04/02 02:38:19;;;;;;;16.60;4.80;;;;;;;11.99;100.00;100313.81;105975;1253;74522;-74
2024/04/02 02:40:46;;;;;;;20.40;6.10;;;;;;;11.98;100.00;100310.55;105730;1253;63814;-76
2024/04/02 02:43:13;;;;;;;19.20;5.70;;;;;;;11.99;100.00;100305.98;105788;1253;72512;-77
2024/04/02 02:45:50;;;;;;;23.20;6.00;;;;;;;11.99;100.00;100305.79;105851;1253;62000;-75
2024/04/02 02:48:17;;;;;;;21.50;5.80;;;;;;;11.99;100.00;100304.05;105873;1252;61382;-75
2024/04/02 02:50:44;;;;;;;18.40;5.20;;;;;;;11.99;100.00;100306.65;105975;1253;74624;-74
2024/04/02 02:53:12;;;;;;;18.70;5.70;;;;;;;11.99;100.00;100305.08;105876;1256;65011;-75
2024/04/02 02:55:39;;;;;;;18.30;5.60;;;;;;;11.99;100.00;100303.47;105799;1252;72740;-78
2024/04/02 02:58:06;;;;;;;24.00;6.60;;;;;;;11.99;100.00;100302.76;105657;1257;61316;-77
2024/04/02 03:00:37;;;;;;;14.20;6.00;;;;;;;12.00;100.00;100303.40;106121;1257;61187;-75
2024/04/02 03:03:05;;;;;;;18.10;5.20;;;;;;;12.00;100.00;100302.73;105998;1252;73214;-77
2024/04/02 03:05:32;;;;;;;21.20;5.60;;;;;;;11.99;100.00;100303.11;105822;1256;63909;-74
2024/04/02 03:07:59;;;;;;;22.20;6.10;;;;;;;12.00;100.00;100303.61;105905;1253;72457;-76
2024/04/02 03:10:25;;;;;;;26.60;6.60;;;;;;;11.99;100.00;100300.13;106247;1253;61826;-73
2024/04/02 03:12:53;;;;;;;15.90;5.40;;;;;;;11.99;100.00;100293.68;106799;1253;61263;-74
2024/04/02 03:15:19;;;;;;;15.30;6.70;;;;;;;11.99;100.00;100289.70;106399;1255;73464;-74
2024/04/02 03:17:46;;;;;;;21.60;5.50;;;;;;;11.98;100.00;100283.77;105775;1257;63875;-76
2024/04/02 03:20:13;;;;;;;17.80;6.10;;;;;;;11.98;100.00;100277.48;105709;1253;72627;-74
2024/04/02 03:22:41;;;;;;;29.70;7.30;;;;;;;11.97;100.00;100273.68;105751;1256;61208;-75
2024/04/02 03:25:08;;;;;;;28.90;6.70;;;;;;;11.97;100.00;100272.48;105844;1257;61130;-77
2024/04/02 03:27:35;;;;;;;19.80;6.20;;;;;;;11.97;100.00;100270.68;105951;1254;74718;-75
2024/04/02 03:30:04;;;;;;;21.40;6.30;;;;;;;11.97;100.00;100271.73;105741;1253;62309;-76
2024/04/02 03:32:31;;;;;;;17.80;6.40;;;;;;;11.98;100.00;100263.11;105805;1253;72578;-74
2024/04/02 03:34:58;;;;;;;25.90;8.20;;;;;;;11.98;100.00;100265.54;105830;1255;61973;-76
2024/04/02 03:37:25;;;;;;;20.10;7.10;;;;;;;11.98;100.00;100260.67;105885;1256;61148;-75
2024/04/02 03:39:52;;;;;;;25.50;7.90;;;;;;;11.98;100.00;100258.19;105947;1256;74526;-75
2024/04/02 03:42:18;;;;;;;30.60;9.10;;;;;;;11.99;100.00;100253.77;105834;1253;61331;-76
2024/04/02 03:44:46;;;;;;;23.50;7.50;;;;;;;12.01;100.00;100259.21;105945;1253;72550;-75
2024/04/02 03:47:12;;;;;;;26.90;7.90;;;;;;;12.02;100.00;100260.17;105763;1256;62108;-74
2024/04/02 03:49:39;;;;;;;25.60;8.30;;;;;;;12.03;100.00;100258.39;105760;1252;61281;-73
2024/04/02 03:52:06;;;;;;;26.00;7.70;;;;;;;12.03;100.00;100257.96;105713;1253;74770;-76
2024/04/02 03:54:33;;;;;;;16.30;7.30;;;;;;;12.05;100.00;100264.04;105746;1257;63743;-76
2024/04/02 03:57:00;;;;;;;19.30;7.80;;;;;;;12.06;100.00;100269.91;105782;1253;72433;-77
2024/04/02 03:59:26;;;;;;;31.60;10.30;;;;;;;12.07;100.00;100271.90;105907;1255;61258;-75
2024/04/02 04:01:53;;;;;;;30.50;8.20;;;;;;;12.08;100.00;100275.34;105807;1255;61852;-75
2024/04/02 04:04:20;;;;;;;26.60;7.50;;;;;;;12.10;100.00;100267.53;105689;1254;61152;-75
2024/04/02 04:06:47;;;;;;;26.40;7.70;;;;;;;12.11;100.00;100268.12;105662;1253;64160;-76
2024/04/02 04:09:14;;;;;;;36.90;12.40;;;;;;;12.12;100.00;100266.64;105715;1253;72698;-73
2024/04/02 04:11:40;;;;;;;26.20;8.50;;;;;;;12.13;100.00;100270.42;105762;1255;61334;-75
2024/04/02 04:14:07;;;;;;;26.30;8.10;;;;;;;12.13;100.00;100266.06;105845;1257;61285;-75
2024/04/02 04:16:34;;;;;;;25.70;7.30;;;;;;;12.15;100.00;100268.40;106400;1252;74564;-75
2024/04/02 04:19:00;;;;;;;30.40;7.80;;;;;;;12.17;100.00;100270.69;109137;1252;61061;-74
2024/04/02 04:21:28;;;;;;;20.70;8.30;;;;;;;12.19;100.00;100275.65;107185;1257;71499;-74
2024/04/02 04:23:55;;;;;;;24.70;8.70;;;;;;;12.20;100.00;100280.64;105825;1257;61245;-74
2024/04/02 04:26:21;;;;;;;27.80;7.80;;;;;;;12.23;100.00;100283.04;105763;1253;61138;-77
2024/04/02 04:28:48;;;;;;;26.50;8.90;;;;;;;12.25;100.00;100285.14;105970;1252;74592;-76
2024/04/02 04:31:15;;;;;;;25.20;8.00;;;;;;;12.29;100.00;100284.56;105869;1256;63883;-76
2024/04/02 04:33:42;;;;;;;23.30;7.70;;;;;;;12.32;100.00;100282.37;105740;1253;72800;-76
2024/04/02 04:36:09;;;;;;;25.30;8.10;;;;;;;12.37;100.00;100283.02;105824;1253;62018;-76
2024/04/02 04:38:36;;;;;;;24.50;8.80;;;;;;;12.43;100.00;100279.64;105774;1253;62161;-74
2024/04/02 04:41:03;;;;;;;31.40;8.20;;;;;;;12.48;100.00;100277.55;105761;1253;74354;-75
2024/04/02 04:43:29;;;;;;;30.10;8.60;;;;;;;12.55;100.00;100282.83;105801;1255;63700;-74
2024/04/02 04:45:57;;;;;;;25.50;9.30;;;;;;;12.60;100.00;100274.40;105718;1257;61342;-74
2024/04/02 04:48:23;;;;;;;25.70;7.70;;;;;;;12.65;100.00;100269.95;105766;1254;61212;-73
2024/04/02 04:51:01;;;;;;;24.10;8.70;;;;;;;12.72;100.00;100267.48;105790;1252;61315;-75
2024/04/02 04:53:28;;;;;;;24.30;8.30;;;;;;;12.83;100.00;100264.96;105829;1255;74378;-74
2024/04/02 04:56:02;;;;;;;26.80;8.40;;;;;;;12.95;100.00;100264.06;105843;1257;63894;-73
2024/04/02 04:58:29;;;;;;;23.20;7.10;;;;;;;13.09;100.00;100263.98;105790;1253;72495;-75
2024/04/02 05:00:57;;;;;;;27.20;8.30;;;;;;;13.26;100.00;100261.01;105853;1252;62127;-77
2024/04/02 05:03:23;;;;;;;28.30;8.20;;;;;;;13.42;100.00;100260.69;105748;1253;61336;-77
2024/04/02 05:06:10;;;;;;;23.40;6.90;;;;;;;13.57;100.00;100257.88;105706;1253;75582;-75
2024/04/02 05:08:38;;;;;;;22.10;7.90;;;;;;;13.78;100.00;100257.46;105720;1256;63787;-77
2024/04/02 05:11:06;;;;;;;30.30;9.50;;;;;;;13.95;100.00;100255.41;105620;1256;61280;-74
2024/04/02 05:13:33;;;;;;;26.70;8.70;;;;;;;14.13;100.00;100248.72;105835;1253;61730;-75
2024/04/02 05:16:00;;;;;;;20.50;7.40;;;;;;;14.31;100.00;100247.57;105877;1253;61607;-75
2024/04/02 05:18:26;;;;;;;23.30;8.10;;;;;;;14.52;100.00;100248.33;105614;1255;74375;-75
2024/04/02 05:20:53;;;;;;;24.30;7.70;;;;;;;14.76;100.00;100244.44;105682;1257;63615;-75
2024/04/02 05:23:21;;;;;;;28.80;8.00;;;;;;;14.99;100.00;100241.14;105775;1253;71889;-76
2024/04/02 05:25:47;;;;;;;26.20;7.70;;;;;;;15.23;100.00;100237.99;105904;1256;61366;-76
2024/04/02 05:28:14;;;;;;;24.20;7.40;;;;;;;15.53;100.00;100231.59;105794;1253;62040;-76
2024/04/02 05:30:41;;;;;;;27.70;7.40;;;;;;;15.86;100.00;100227.85;105666;1253;75046;-74
2024/04/02 05:33:08;;;;;;;26.50;9.20;;;;;;;16.23;100.00;100225.04;105719;1256;63812;-74
2024/04/02 05:35:35;;;;;;;22.80;7.00;;;;;;;16.60;100.00;100221.38;105709;1254;72642;-73
2024/04/02 05:38:04;;;;;;;29.70;8.50;;;;;;;16.94;100.00;100225.09;105707;1255;61369;-75
2024/04/02 05:40:31;;;;;;;25.90;7.00;;;;;;;17.27;100.00;100226.10;105860;1253;61260;-74
2024/04/02 05:42:58;;;;;;;24.00;6.20;;;;;;;17.55;100.00;100228.27;105769;1254;74759;-76
2024/04/02 05:45:25;;;;;;;21.60;6.20;;;;;;;17.79;100.00;100225.05;105733;1253;62777;-72
2024/04/02 05:50:20;;;;;;;25.00;7.10;;;;;;;18.15;100.00;100223.02;102566;1290;601779;-74
2024/04/02 05:52:50;;;;;;;21.40;6.70;;;;;;;18.17;99.82;100217.66;105105;1267;60439;-76
2024/04/02 05:55:17;;;;;;;24.70;5.40;;;;;;;18.14;98.41;100211.77;105186;1267;59535;-76
2024/04/02 05:57:44;;;;;;;18.00;5.30;;;;;;;18.10;97.41;100210.14;105013;1266;73051;-73
2024/04/02 06:00:11;;;;;;;22.80;5.00;;;;;;;18.11;97.08;100207.10;105029;1266;64376;-73
2024/04/02 06:02:38;;;;;;;25.00;6.40;;;;;;;18.14;94.83;100203.44;104907;1261;221862;-76
2024/04/02 06:05:05;;;;;;;21.60;5.30;;;;;;;18.16;93.47;100200.91;105242;1262;60114;-75
2024/04/02 06:07:32;;;;;;;20.50;5.80;;;;;;;18.19;90.89;100201.27;105282;1261;60375;-75
2024/04/02 06:09:59;;;;;;;28.80;5.40;;;;;;;18.15;88.39;100198.54;105236;1261;72262;-74
2024/04/02 06:12:26;;;;;;;24.80;5.40;;;;;;;18.08;89.84;100196.11;105239;1265;65182;-73
2024/04/02 06:14:55;;;;;;;18.00;5.20;;;;;;;18.02;90.40;100186.08;105210;1261;72676;-74
2024/04/02 06:17:21;;;;;;;16.40;4.40;;;;;;;17.97;88.95;100175.02;105408;1263;60555;-76
2024/04/02 06:19:48;;;;;;;17.10;4.70;;;;;;;17.93;89.00;100171.00;105306;1258;60542;-75
2024/04/02 06:22:15;;;;;;;13.90;5.00;;;;;;;17.93;89.26;100170.46;105497;1263;74223;-75
2024/04/02 06:24:42;;;;;;;23.30;4.80;;;;;;;18.01;89.38;100169.48;106076;1254;62665;-77
2024/04/02 06:27:08;;;;;;;18.50;5.20;;;;;;;18.18;87.43;100174.15;106032;1254;71747;-79
2024/04/02 06:29:35;;;;;;;22.10;6.30;;;;;;;18.36;84.40;100178.98;106031;1254;60516;-77
2024/04/02 06:32:02;;;;;;;36.60;6.20;;;;;;;18.52;81.95;100184.76;106118;1252;60433;-79
2024/04/02 06:34:29;;;;;;;22.20;5.60;;;;;;;18.64;79.28;100185.20;106184;1250;74957;-77
2024/04/02 06:36:56;;;;;;;23.60;5.70;;;;;;;18.70;78.80;100182.30;106142;1254;64346;-78
2024/04/02 06:39:23;;;;;;;17.00;4.50;;;;;;;18.76;78.15;100180.39;106118;1254;72588;-79
2024/04/02 06:41:49;;;;;;;21.90;4.70;;;;;;;18.82;78.47;100181.21;106109;1254;60590;-77
2024/04/02 06:44:16;;;;;;;23.00;6.30;;;;;;;18.99;79.29;100180.23;106078;1250;60452;-77
2024/04/02 06:46:43;;;;;;;21.80;4.90;;;;;;;19.29;77.22;100181.17;105985;1254;73846;-75
2024/04/02 06:49:09;;;;;;;20.20;5.20;;;;;;;19.69;71.25;100181.66;106117;1251;62662;-78
2024/04/02 06:51:37;;;;;;;19.60;4.80;;;;;;;20.06;65.70;100169.98;106100;1254;73587;-79
2024/04/02 06:54:03;;;;;;;21.50;4.50;;;;;;;20.42;63.37;100162.83;106034;1256;60347;-81
2024/04/02 06:56:30;;;;;;;19.30;4.30;;;;;;;20.81;57.97;100164.45;106174;1250;62119;-78
2024/04/02 06:58:57;;;;;;;17.20;3.60;;;;;;;21.11;55.23;100172.31;106181;1254;75069;-80
2024/04/02 07:01:24;;;;;;;15.60;3.50;;;;;;;21.33;52.77;100164.95;106141;1254;64136;-78
2024/04/02 07:03:51;;;;;;;19.50;4.50;;;;;;;21.46;51.33;100156.67;106720;1251;72394;-78
2024/04/02 07:06:17;;;;;;;21.20;5.40;;;;;;;21.58;50.90;100156.41;106814;1251;60539;-77
2024/04/02 07:08:47;;;;;;;15.20;4.40;;;;;;;21.67;50.60;100152.39;106261;1252;60775;-78
2024/04/02 07:11:15;;;;;;;16.40;4.20;;;;;;;21.76;49.91;100151.48;106455;1251;73502;-79
2024/04/02 07:13:42;;;;;;;20.70;4.30;;;;;;;21.80;49.00;100151.71;106586;1251;65378;-80
2024/04/02 07:16:09;;;;;;;15.30;3.30;;;;;;;21.83;48.72;100155.73;106063;1252;72886;-78
2024/04/02 07:18:36;;;;;;;21.60;4.50;;;;;;;21.85;48.13;100145.65;106047;1254;60618;-79
2024/04/02 07:21:05;;;;;;;29.00;4.70;;;;;;;21.89;47.69;100135.38;106136;1252;60402;-79
2024/04/02 07:23:32;;;;;;;24.40;5.20;;;;;;;21.90;46.96;100130.10;106181;1251;72901;-77
2024/04/02 07:25:59;;;;;;;19.00;3.80;;;;;;;21.91;47.73;100127.48;106222;1254;65147;-80
2024/04/02 07:28:26;;;;;;;19.10;5.50;;;;;;;21.98;47.39;100126.89;106190;1252;75767;-79
2024/04/02 07:30:53;;;;;;;23.00;5.50;;;;;;;22.00;46.86;100128.48;106303;1252;60536;-80
2024/04/02 07:33:20;;;;;;;22.90;6.50;;;;;;;21.93;46.64;100116.30;106334;1252;60468;-81
2024/04/02 07:35:48;;;;;;;24.80;5.00;;;;;;;21.84;47.25;100109.48;106334;1254;73013;-80
2024/04/02 07:38:15;;;;;;;29.30;6.30;;;;;;;21.85;47.83;100104.23;106351;1251;63733;-79
2024/04/02 07:40:43;;;;;;;23.30;4.90;;;;;;;22.00;47.55;100105.25;106262;1253;72726;-79
2024/04/02 07:43:10;;;;;;;18.00;5.10;;;;;;;22.21;46.98;100103.75;106232;1254;60452;-80
2024/04/02 07:45:37;;;;;;;16.40;5.10;;;;;;;22.38;46.53;100099.48;106257;1253;60382;-78
2024/04/02 07:48:05;;;;;;;21.90;4.80;;;;;;;22.49;45.86;100100.11;106323;1251;74845;-80
2024/04/02 07:50:33;;;;;;;22.20;4.50;;;;;;;22.60;45.11;100078.60;106330;1254;63992;-81
2024/04/02 07:53:00;;;;;;;17.20;4.20;;;;;;;22.76;45.02;100081.23;106269;1252;73665;-79
2024/04/02 07:55:27;;;;;;;24.10;5.50;;;;;;;22.92;44.86;100074.05;106385;1251;60428;-78
2024/04/02 07:57:54;;;;;;;25.00;4.10;;;;;;;23.16;44.34;100074.39;106279;1254;60434;-81
2024/04/02 08:00:21;;;;;;;27.00;5.10;;;;;;;23.37;43.41;100065.14;106172;1251;72744;-80
2024/04/02 08:02:47;;;;;;;19.40;4.60;;;;;;;23.54;42.90;100064.02;106354;1254;62853;-77
2024/04/02 08:05:14;;;;;;;24.80;5.10;;;;;;;23.77;41.99;100061.77;106208;1254;71501;-80
2024/04/02 08:07:42;;;;;;;20.20;4.40;;;;;;;23.94;40.43;100055.31;106222;1254;61083;-79
2024/04/02 08:10:09;;;;;;;17.90;5.30;;;;;;;24.06;39.82;100051.86;106227;1252;62128;-78
2024/04/02 08:12:36;;;;;;;22.30;6.60;;;;;;;24.21;39.15;100052.72;106364;1251;74112;-77
2024/04/02 08:15:04;;;;;;;18.10;4.50;;;;;;;24.39;38.86;100051.65;106276;1253;63773;-78
2024/04/02 08:17:31;;;;;;;25.60;4.40;;;;;;;24.54;37.34;100042.90;106232;1254;72361;-79
2024/04/02 08:19:58;;;;;;;34.40;6.80;;;;;;;24.60;36.14;100033.95;106432;1251;60427;-78
2024/04/02 08:22:25;;;;;;;24.70;4.70;;;;;;;24.58;36.47;100034.55;106335;1251;60414;-78
2024/04/02 08:24:55;;;;;;;29.90;5.90;;;;;;;24.60;35.92;100030.65;106321;1252;73611;-75
2024/04/02 08:27:22;;;;;;;36.50;7.20;;;;;;;24.56;35.34;100033.71;106274;1254;65153;-79
2024/04/02 08:29:49;;;;;;;17.20;5.00;;;;;;;24.45;35.19;100033.77;106278;1251;72933;-79
2024/04/02 08:32:16;;;;;;;23.80;5.00;;;;;;;24.28;34.78;100033.85;106159;1251;60424;-75
2024/04/02 08:34:43;;;;;;;27.00;4.70;;;;;;;24.14;35.20;100034.28;106201;1252;60418;-77
2024/04/02 08:37:10;;;;;;;22.70;5.10;;;;;;;24.12;35.56;100028.17;106325;1252;73087;-79
2024/04/02 08:39:37;;;;;;;30.80;4.80;;;;;;;24.33;35.18;100026.82;106242;1253;63616;-77
2024/04/02 08:42:04;;;;;;;23.10;4.70;;;;;;;24.62;35.07;100022.89;106248;1253;72965;-78
2024/04/02 08:44:49;;;;;;;33.80;5.30;;;;;;;24.98;34.44;100014.88;106289;1253;60463;-79
2024/04/02 08:47:16;;;;;;;22.70;5.60;;;;;;;25.24;34.11;100013.16;106334;1250;60437;-79
2024/04/02 08:49:44;;;;;;;22.00;5.00;;;;;;;25.51;33.78;100008.96;106167;1254;73330;-80
2024/04/02 08:52:11;;;;;;;67.20;7.60;;;;;;;25.82;33.31;100002.52;106465;1254;64538;-78
2024/04/02 08:54:37;;;;;;;33.20;5.30;;;;;;;26.16;32.80;99994.92;106275;1251;72612;-79
2024/04/02 08:57:11;;;;;;;26.40;5.00;;;;;;;26.41;32.04;99988.91;106207;1254;61631;-78
2024/04/02 08:59:40;;;;;;;19.10;4.90;;;;;;;26.52;31.98;99981.07;106203;1253;60729;-77
2024/04/02 09:02:09;;;;;;;18.40;4.50;;;;;;;26.66;32.20;99986.99;106085;1253;74114;-80
2024/04/02 09:04:36;;;;;;;26.80;4.80;;;;;;;26.84;32.24;99985.17;106295;1254;63896;-78
2024/04/02 09:07:03;;;;;;;24.00;4.70;;;;;;;27.03;32.19;99987.14;106339;1252;72817;-78
2024/04/02 09:09:30;;;;;;;30.90;5.90;;;;;;;27.33;32.15;99978.45;106270;1254;60387;-76
2024/04/02 09:11:57;;;;;;;25.30;5.00;;;;;;;27.62;31.25;99985.33;106241;1254;60542;-74
2024/04/02 09:14:24;;;;;;;16.70;4.20;;;;;;;27.79;31.07;99979.05;106225;1252;72905;-77
2024/04/02 09:16:54;;;;;;;22.70;4.80;;;;;;;27.89;30.84;99982.61;106206;1254;63866;-75
2024/04/02 09:19:21;;;;;;;24.80;6.40;;;;;;;27.93;30.50;99976.31;106185;1254;72670;-76
2024/04/02 09:21:48;;;;;;;28.30;6.60;;;;;;;27.85;30.23;99968.36;106224;1254;62179;-76
2024/04/02 09:24:15;;;;;;;26.30;4.40;;;;;;;27.77;30.54;99961.16;106104;1254;60507;-76
2024/04/02 09:26:42;;;;;;;23.90;5.40;;;;;;;27.72;30.30;99969.91;106117;1252;75068;-77
2024/04/02 09:29:09;;;;;;;22.80;5.80;;;;;;;27.66;30.71;99969.89;106199;1251;61919;-78
2024/04/02 09:31:35;;;;;;;22.60;4.10;;;;;;;27.76;30.72;99960.56;106252;1251;72671;-79
2024/04/02 09:34:08;;;;;;;50.60;6.70;;;;;;;27.96;30.40;99950.77;106202;1254;60448;-79
2024/04/02 09:36:47;;;;;;;26.50;4.20;;;;;;;28.12;29.78;99943.10;106311;1254;60457;-78
2024/04/02 09:39:15;;;;;;;26.20;5.00;;;;;;;28.15;29.82;99940.41;106249;1251;74395;-78
2024/04/02 09:41:43;;;;;;;24.10;4.50;;;;;;;28.28;30.18;99936.66;106323;1254;63662;-78
2024/04/02 09:44:28;;;;;;;24.60;6.40;;;;;;;28.56;29.65;99927.38;106375;1252;72954;-77
2024/04/02 09:46:55;;;;;;;19.60;5.80;;;;;;;28.74;29.21;99923.41;105948;1256;61023;-76
2024/04/02 09:49:23;;;;;;;30.00;6.00;;;;;;;28.87;28.98;99914.20;106130;1251;61713;-76
2024/04/02 09:51:49;;;;;;;20.50;4.50;;;;;;;28.92;28.71;99900.94;106152;1253;72946;-76
2024/04/02 09:54:16;;;;;;;25.10;5.40;;;;;;;28.88;28.83;99910.72;106081;1252;64332;-78
2024/04/02 09:56:43;;;;;;;25.90;4.10;;;;;;;28.92;28.68;99908.87;106039;1254;72926;-79
2024/04/02 09:59:12;;;;;;;32.70;5.30;;;;;;;28.92;28.70;99907.32;106112;1254;61482;-79
2024/04/02 10:01:39;;;;;;;17.60;4.20;;;;;;;28.94;28.77;99902.65;106039;1254;61283;-78
2024/04/02 10:04:07;;;;;;;24.90;5.20;;;;;;;29.02;28.54;99905.66;106599;1254;74823;-77
2024/04/02 10:06:36;;;;;;;31.60;6.80;;;;;;;29.14;28.56;99909.14;107608;1251;63271;-75
2024/04/02 10:09:08;;;;;;;21.60;4.60;;;;;;;29.38;28.45;99904.70;107057;1253;71747;-77
2024/04/02 10:11:42;;;;;;;27.20;5.40;;;;;;;29.64;28.43;99903.16;106102;1253;61333;-76
2024/04/02 10:14:16;;;;;;;21.00;4.40;;;;;;;29.92;27.95;99897.54;106213;1252;61237;-77
2024/04/02 10:16:49;;;;;;;24.90;5.10;;;;;;;30.14;27.64;99876.37;106036;1254;73316;-79
2024/04/02 10:19:20;;;;;;;27.00;5.30;;;;;;;30.27;27.03;99875.88;106322;1254;63899;-78
2024/04/02 10:21:48;;;;;;;34.30;5.30;;;;;;;30.25;26.98;99868.63;106270;1254;72050;-76
2024/04/02 10:24:16;;;;;;;45.10;6.70;;;;;;;30.26;27.12;99855.33;106244;1254;61304;-80
2024/04/02 10:26:44;;;;;;;30.70;7.20;;;;;;;30.19;26.66;99852.18;106356;1258;61685;-80
2024/04/02 10:29:10;;;;;;;35.70;5.70;;;;;;;30.11;26.64;99845.52;106438;1254;75839;-77
2024/04/02 10:31:41;;;;;;;37.20;5.60;;;;;;;30.16;26.78;99842.00;106296;1254;64833;-78
2024/04/02 10:34:11;;;;;;;35.60;5.90;;;;;;;30.27;26.51;99834.33;106307;1252;71711;-78
2024/04/02 10:36:40;;;;;;;31.10;5.80;;;;;;;30.36;26.34;99831.70;106321;1254;61266;-79
2024/04/02 10:39:09;;;;;;;30.60;5.90;;;;;;;30.49;26.28;99826.31;106569;1249;61333;-76
2024/04/02 10:41:37;;;;;;;32.40;5.20;;;;;;;30.65;25.80;99828.02;106683;1251;75704;-80
2024/04/02 10:44:05;;;;;;;36.40;5.40;;;;;;;30.81;25.52;99821.58;106782;1253;65257;-78
2024/04/02 10:46:32;;;;;;;27.50;5.40;;;;;;;30.94;25.35;99818.73;106493;1253;72371;-76
2024/04/02 10:48:59;;;;;;;34.00;6.40;;;;;;;31.02;25.52;99820.75;106774;1252;61328;-77
2024/04/02 10:51:27;;;;;;;28.70;5.70;;;;;;;31.00;24.86;99805.29;106617;1254;61135;-75
2024/04/02 10:53:55;;;;;;;36.80;6.40;;;;;;;30.78;24.60;99813.17;106486;1253;73719;-78
2024/04/02 10:56:30;;;;;;;33.70;5.90;;;;;;;30.50;24.81;99802.13;106534;1254;64309;-75
2024/04/02 10:58:58;;;;;;;20.50;5.10;;;;;;;30.35;24.22;99807.76;106192;1254;72592;-78
2024/04/02 11:01:25;;;;;;;28.70;5.70;;;;;;;30.25;24.40;99792.30;106335;1252;61327;-78
2024/04/02 11:03:55;;;;;;;38.80;6.40;;;;;;;30.26;24.62;99791.02;106387;1252;61234;-75
2024/04/02 11:06:22;;;;;;;18.80;5.40;;;;;;;30.19;24.37;99794.83;106131;1255;74008;-79
2024/04/02 11:08:49;;;;;;;23.50;4.30;;;;;;;30.10;24.50;99792.66;106375;1254;64243;-77
2024/04/02 11:11:21;;;;;;;19.50;4.00;;;;;;;30.01;24.31;99785.30;106306;1255;71729;-76